sensor_id;sensor_type;location;lat;lon;timestamp;P1;durP1;ratioP1;P2;durP2;ratioP2
68858;SDS011;55864;49.238;8.092;2022-10-29T07:23:42;15.02;;;6.15;;
68858;SDS011;55864;49.238;8.092;2022-10-29T07:25:42;16.20;;;5.95;;
68858;SDS011;55864;49.238;8.092;2022-10-29T07:27:43;12.27;;;5.03;;
68858;SDS011;55864;49.238;8.092;2022-10-29T07:29:43;12.77;;;5.30;;
68858;SDS011;55864;49.238;8.092;2022-10-29T07:31:44;19.35;;;6.38;;
68858;SDS011;55864;49.238;8.092;2022-10-29T07:33:44;13.73;;;5.32;;
68858;SDS011;55864;49.238;8.092;2022-10-29T07:35:45;15.90;;;5.18;;
68858;SDS011;55864;49.238;8.092;2022-10-29T07:37:45;16.05;;;4.78;;
68858;SDS011;55864;49.238;8.092;2022-10-29T07:39:47;13.73;;;4.35;;
68858;SDS011;55864;49.238;8.092;2022-10-29T07:41:48;17.83;;;5.20;;
68858;SDS011;55864;49.238;8.092;2022-10-29T07:43:49;16.38;;;5.03;;
68858;SDS011;55864;49.238;8.092;2022-10-29T07:45:50;13.48;;;4.95;;
68858;SDS011;55864;49.238;8.092;2022-10-29T07:47:56;14.57;;;4.85;;
68858;SDS011;55864;49.238;8.092;2022-10-29T07:49:58;11.57;;;4.80;;
68858;SDS011;55864;49.238;8.092;2022-10-29T07:51:58;14.10;;;5.20;;
68858;SDS011;55864;49.238;8.092;2022-10-29T07:53:59;16.38;;;5.03;;
68858;SDS011;55864;49.238;8.092;2022-10-29T07:56:01;13.95;;;4.32;;
68858;SDS011;55864;49.238;8.092;2022-10-29T07:58:02;14.80;;;4.97;;
68858;SDS011;55864;49.238;8.092;2022-10-29T08:00:05;16.48;;;6.15;;
68858;SDS011;55864;49.238;8.092;2022-10-29T08:02:12;23.98;;;8.48;;
68858;SDS011;55864;49.238;8.092;2022-10-29T08:04:12;21.00;;;7.38;;
68858;SDS011;55864;49.238;8.092;2022-10-29T08:06:13;24.25;;;6.78;;
68858;SDS011;55864;49.238;8.092;2022-10-29T08:08:14;23.42;;;9.85;;
68858;SDS011;55864;49.238;8.092;2022-10-29T08:10:15;34.80;;;13.38;;
68858;SDS011;55864;49.238;8.092;2022-10-29T08:12:17;17.20;;;5.70;;
68858;SDS011;55864;49.238;8.092;2022-10-29T08:14:17;19.58;;;6.35;;
68858;SDS011;55864;49.238;8.092;2022-10-29T08:16:18;27.55;;;11.85;;
68858;SDS011;55864;49.238;8.092;2022-10-29T08:18:18;25.85;;;11.32;;
68858;SDS011;55864;49.238;8.092;2022-10-29T08:20:20;21.17;;;6.55;;
68858;SDS011;55864;49.238;8.092;2022-10-29T08:22:21;16.42;;;4.90;;
68858;SDS011;55864;49.238;8.092;2022-10-29T08:24:21;18.60;;;6.13;;
68858;SDS011;55864;49.238;8.092;2022-10-29T08:26:22;11.57;;;5.07;;
68858;SDS011;55864;49.238;8.092;2022-10-29T08:28:24;18.27;;;5.03;;
68858;SDS011;55864;49.238;8.092;2022-10-29T08:30:24;16.20;;;5.03;;
68858;SDS011;55864;49.238;8.092;2022-10-29T08:32:25;12.00;;;4.93;;
68858;SDS011;55864;49.238;8.092;2022-10-29T08:34:25;16.67;;;4.93;;
68858;SDS011;55864;49.238;8.092;2022-10-29T08:36:26;13.50;;;5.50;;
68858;SDS011;55864;49.238;8.092;2022-10-29T08:38:26;12.18;;;4.88;;
68858;SDS011;55864;49.238;8.092;2022-10-29T08:40:28;13.52;;;4.68;;
68858;SDS011;55864;49.238;8.092;2022-10-29T08:44:59;13.82;;;4.05;;
68858;SDS011;55864;49.238;8.092;2022-10-29T08:47:14;16.60;;;5.65;;
68858;SDS011;55864;49.238;8.092;2022-10-29T08:49:18;16.20;;;5.90;;
68858;SDS011;55864;49.238;8.092;2022-10-29T08:51:23;12.48;;;5.25;;
68858;SDS011;55864;49.238;8.092;2022-10-29T08:53:30;13.40;;;5.78;;
68858;SDS011;55864;49.238;8.092;2022-10-29T08:55:35;15.93;;;5.47;;
68858;SDS011;55864;49.238;8.092;2022-10-29T08:57:38;12.93;;;5.18;;
68858;SDS011;55864;49.238;8.092;2022-10-29T08:59:42;24.85;;;6.68;;
68858;SDS011;55864;49.238;8.092;2022-10-29T09:01:57;17.55;;;6.65;;
68858;SDS011;55864;49.238;8.092;2022-10-29T09:03:57;24.27;;;7.75;;
68858;SDS011;55864;49.238;8.092;2022-10-29T09:05:59;19.45;;;5.55;;
68858;SDS011;55864;49.238;8.092;2022-10-29T09:08:12;16.25;;;5.70;;
68858;SDS011;55864;49.238;8.092;2022-10-29T09:10:24;15.45;;;5.57;;
68858;SDS011;55864;49.238;8.092;2022-10-29T09:12:34;18.50;;;6.10;;
68858;SDS011;55864;49.238;8.092;2022-10-29T09:14:55;17.73;;;5.05;;
68858;SDS011;55864;49.238;8.092;2022-10-29T09:17:21;16.70;;;5.78;;
68858;SDS011;55864;49.238;8.092;2022-10-29T09:19:33;17.80;;;5.93;;
68858;SDS011;55864;49.238;8.092;2022-10-29T09:21:45;17.45;;;4.50;;
68858;SDS011;55864;49.238;8.092;2022-10-29T09:23:57;17.20;;;5.63;;
68858;SDS011;55864;49.238;8.092;2022-10-29T09:26:03;25.85;;;10.48;;
68858;SDS011;55864;49.238;8.092;2022-10-29T09:28:13;43.90;;;15.27;;
68858;SDS011;55864;49.238;8.092;2022-10-29T09:30:22;28.50;;;10.98;;
68858;SDS011;55864;49.238;8.092;2022-10-29T09:32:30;20.17;;;6.47;;
68858;SDS011;55864;49.238;8.092;2022-10-29T09:34:37;21.15;;;6.05;;
68858;SDS011;55864;49.238;8.092;2022-10-29T09:36:41;15.43;;;4.40;;
68858;SDS011;55864;49.238;8.092;2022-10-29T09:38:44;17.40;;;5.82;;
68858;SDS011;55864;49.238;8.092;2022-10-29T09:40:59;15.80;;;4.80;;
68858;SDS011;55864;49.238;8.092;2022-10-29T09:43:04;19.35;;;5.68;;
68858;SDS011;55864;49.238;8.092;2022-10-29T09:45:06;16.63;;;5.55;;
68858;SDS011;55864;49.238;8.092;2022-10-29T09:47:15;31.25;;;7.53;;
68858;SDS011;55864;49.238;8.092;2022-10-29T09:49:29;28.25;;;7.80;;
68858;SDS011;55864;49.238;8.092;2022-10-29T09:51:40;27.00;;;10.35;;
68858;SDS011;55864;49.238;8.092;2022-10-29T09:53:48;31.33;;;14.57;;
68858;SDS011;55864;49.238;8.092;2022-10-29T09:55:49;32.15;;;12.52;;
68858;SDS011;55864;49.238;8.092;2022-10-29T09:57:49;23.88;;;8.25;;
68858;SDS011;55864;49.238;8.092;2022-10-29T09:59:52;19.45;;;7.05;;
68858;SDS011;55864;49.238;8.092;2022-10-29T10:01:55;23.42;;;7.93;;
68858;SDS011;55864;49.238;8.092;2022-10-29T10:03:58;18.70;;;5.13;;
68858;SDS011;55864;49.238;8.092;2022-10-29T10:06:07;15.10;;;4.57;;
68858;SDS011;55864;49.238;8.092;2022-10-29T10:08:09;21.02;;;4.90;;
68858;SDS011;55864;49.238;8.092;2022-10-29T10:10:18;16.83;;;4.57;;
68858;SDS011;55864;49.238;8.092;2022-10-29T10:12:21;141.07;;;13.73;;
68858;SDS011;55864;49.238;8.092;2022-10-29T10:14:24;34.10;;;6.70;;
68858;SDS011;55864;49.238;8.092;2022-10-29T10:16:25;23.10;;;5.07;;
68858;SDS011;55864;49.238;8.092;2022-10-29T10:18:37;20.27;;;5.93;;
68858;SDS011;55864;49.238;8.092;2022-10-29T10:20:40;15.13;;;5.18;;
68858;SDS011;55864;49.238;8.092;2022-10-29T10:22:46;14.32;;;5.32;;
68858;SDS011;55864;49.238;8.092;2022-10-29T10:24:46;15.55;;;5.03;;
68858;SDS011;55864;49.238;8.092;2022-10-29T10:26:47;14.93;;;4.93;;
68858;SDS011;55864;49.238;8.092;2022-10-29T10:28:47;17.58;;;5.18;;
68858;SDS011;55864;49.238;8.092;2022-10-29T10:31:09;20.88;;;7.88;;
68858;SDS011;55864;49.238;8.092;2022-10-29T10:33:21;16.95;;;5.00;;
68858;SDS011;55864;49.238;8.092;2022-10-29T10:35:24;12.30;;;4.25;;
68858;SDS011;55864;49.238;8.092;2022-10-29T10:37:26;13.85;;;4.20;;
68858;SDS011;55864;49.238;8.092;2022-10-29T10:39:35;17.77;;;4.38;;
68858;SDS011;55864;49.238;8.092;2022-10-29T10:41:37;16.00;;;4.95;;
68858;SDS011;55864;49.238;8.092;2022-10-29T10:43:41;17.60;;;4.70;;
68858;SDS011;55864;49.238;8.092;2022-10-29T10:45:44;16.98;;;4.18;;
68858;SDS011;55864;49.238;8.092;2022-10-29T10:47:55;16.92;;;3.72;;
68858;SDS011;55864;49.238;8.092;2022-10-29T10:50:08;13.93;;;4.18;;
68858;SDS011;55864;49.238;8.092;2022-10-29T10:52:13;18.85;;;3.85;;
68858;SDS011;55864;49.238;8.092;2022-10-29T10:54:25;13.90;;;3.45;;
68858;SDS011;55864;49.238;8.092;2022-10-29T10:56:29;14.32;;;3.80;;
68858;SDS011;55864;49.238;8.092;2022-10-29T10:58:30;13.77;;;4.10;;
68858;SDS011;55864;49.238;8.092;2022-10-29T11:00:36;13.10;;;4.30;;
68858;SDS011;55864;49.238;8.092;2022-10-29T11:02:42;12.07;;;3.97;;
68858;SDS011;55864;49.238;8.092;2022-10-29T11:04:48;12.20;;;4.15;;
68858;SDS011;55864;49.238;8.092;2022-10-29T11:06:56;14.63;;;3.28;;
68858;SDS011;55864;49.238;8.092;2022-10-29T11:09:01;13.02;;;3.63;;
68858;SDS011;55864;49.238;8.092;2022-10-29T11:11:09;16.48;;;3.55;;
68858;SDS011;55864;49.238;8.092;2022-10-29T11:13:14;13.07;;;3.25;;
68858;SDS011;55864;49.238;8.092;2022-10-29T11:15:18;16.58;;;3.78;;
68858;SDS011;55864;49.238;8.092;2022-10-29T11:17:25;14.43;;;3.92;;
68858;SDS011;55864;49.238;8.092;2022-10-29T11:19:28;11.70;;;3.60;;
68858;SDS011;55864;49.238;8.092;2022-10-29T11:21:33;10.40;;;3.17;;
68858;SDS011;55864;49.238;8.092;2022-10-29T11:23:38;20.58;;;3.72;;
68858;SDS011;55864;49.238;8.092;2022-10-29T11:25:47;17.13;;;4.38;;
68858;SDS011;55864;49.238;8.092;2022-10-29T11:27:54;11.80;;;3.95;;
68858;SDS011;55864;49.238;8.092;2022-10-29T11:30:03;13.93;;;3.65;;
68858;SDS011;55864;49.238;8.092;2022-10-29T11:32:07;15.27;;;3.85;;
68858;SDS011;55864;49.238;8.092;2022-10-29T11:34:14;17.92;;;4.15;;
68858;SDS011;55864;49.238;8.092;2022-10-29T11:36:20;21.75;;;4.05;;
68858;SDS011;55864;49.238;8.092;2022-10-29T11:38:23;11.73;;;3.28;;
68858;SDS011;55864;49.238;8.092;2022-10-29T11:40:33;11.00;;;3.67;;
68858;SDS011;55864;49.238;8.092;2022-10-29T11:42:40;12.68;;;3.63;;
68858;SDS011;55864;49.238;8.092;2022-10-29T11:44:41;12.45;;;3.83;;
68858;SDS011;55864;49.238;8.092;2022-10-29T11:46:46;12.75;;;3.88;;
68858;SDS011;55864;49.238;8.092;2022-10-29T11:49:01;15.55;;;4.03;;
68858;SDS011;55864;49.238;8.092;2022-10-29T11:51:14;19.17;;;3.95;;
68858;SDS011;55864;49.238;8.092;2022-10-29T11:53:36;14.15;;;3.55;;
68858;SDS011;55864;49.238;8.092;2022-10-29T11:55:52;13.20;;;3.55;;
68858;SDS011;55864;49.238;8.092;2022-10-29T11:58:00;13.18;;;3.60;;
68858;SDS011;55864;49.238;8.092;2022-10-29T12:00:04;16.23;;;3.85;;
68858;SDS011;55864;49.238;8.092;2022-10-29T12:02:20;12.25;;;3.17;;
68858;SDS011;55864;49.238;8.092;2022-10-29T12:04:30;12.13;;;3.92;;
68858;SDS011;55864;49.238;8.092;2022-10-29T12:06:36;32.80;;;5.90;;
68858;SDS011;55864;49.238;8.092;2022-10-29T12:08:45;15.95;;;4.18;;
68858;SDS011;55864;49.238;8.092;2022-10-29T12:10:57;14.25;;;3.65;;
68858;SDS011;55864;49.238;8.092;2022-10-29T12:13:05;14.10;;;3.67;;
68858;SDS011;55864;49.238;8.092;2022-10-29T12:15:19;16.30;;;3.70;;
68858;SDS011;55864;49.238;8.092;2022-10-29T12:17:26;12.20;;;4.10;;
68858;SDS011;55864;49.238;8.092;2022-10-29T12:19:41;26.02;;;4.80;;
68858;SDS011;55864;49.238;8.092;2022-10-29T12:21:49;13.30;;;4.13;;
68858;SDS011;55864;49.238;8.092;2022-10-29T12:23:58;14.52;;;4.60;;
68858;SDS011;55864;49.238;8.092;2022-10-29T12:26:07;16.63;;;3.72;;
68858;SDS011;55864;49.238;8.092;2022-10-29T12:28:15;12.10;;;3.72;;
68858;SDS011;55864;49.238;8.092;2022-10-29T12:30:23;9.68;;;3.53;;
68858;SDS011;55864;49.238;8.092;2022-10-29T12:32:26;10.55;;;3.33;;
68858;SDS011;55864;49.238;8.092;2022-10-29T12:34:34;17.25;;;4.00;;
68858;SDS011;55864;49.238;8.092;2022-10-29T12:36:42;10.88;;;3.28;;
68858;SDS011;55864;49.238;8.092;2022-10-29T12:38:48;14.75;;;3.70;;
68858;SDS011;55864;49.238;8.092;2022-10-29T12:40:53;15.70;;;3.80;;
68858;SDS011;55864;49.238;8.092;2022-10-29T12:43:01;14.18;;;4.13;;
68858;SDS011;55864;49.238;8.092;2022-10-29T12:45:07;11.98;;;3.38;;
68858;SDS011;55864;49.238;8.092;2022-10-29T12:47:22;12.07;;;3.67;;
68858;SDS011;55864;49.238;8.092;2022-10-29T12:49:29;14.52;;;3.60;;
68858;SDS011;55864;49.238;8.092;2022-10-29T12:51:40;9.07;;;3.17;;
68858;SDS011;55864;49.238;8.092;2022-10-29T12:53:51;12.23;;;4.00;;
68858;SDS011;55864;49.238;8.092;2022-10-29T12:56:11;15.30;;;3.80;;
68858;SDS011;55864;49.238;8.092;2022-10-29T13:00:43;18.63;;;3.90;;
68858;SDS011;55864;49.238;8.092;2022-10-29T13:02:44;13.65;;;3.53;;
68858;SDS011;55864;49.238;8.092;2022-10-29T13:07:21;15.38;;;4.15;;
68858;SDS011;55864;49.238;8.092;2022-10-29T13:09:23;15.38;;;4.05;;
68858;SDS011;55864;49.238;8.092;2022-10-29T13:11:24;15.48;;;3.78;;
68858;SDS011;55864;49.238;8.092;2022-10-29T13:13:52;16.67;;;4.22;;
68858;SDS011;55864;49.238;8.092;2022-10-29T13:15:58;16.75;;;4.68;;
68858;SDS011;55864;49.238;8.092;2022-10-29T13:18:03;16.27;;;4.20;;
68858;SDS011;55864;49.238;8.092;2022-10-29T13:20:18;12.32;;;3.97;;
68858;SDS011;55864;49.238;8.092;2022-10-29T13:27:32;16.13;;;4.68;;
68858;SDS011;55864;49.238;8.092;2022-10-29T13:29:43;14.00;;;4.70;;
68858;SDS011;55864;49.238;8.092;2022-10-29T13:31:47;16.23;;;3.80;;
68858;SDS011;55864;49.238;8.092;2022-10-29T13:33:48;16.92;;;3.83;;
68858;SDS011;55864;49.238;8.092;2022-10-29T13:35:52;15.45;;;4.10;;
68858;SDS011;55864;49.238;8.092;2022-10-29T13:37:53;15.00;;;3.92;;
68858;SDS011;55864;49.238;8.092;2022-10-29T13:42:28;11.93;;;3.92;;
68858;SDS011;55864;49.238;8.092;2022-10-29T13:44:28;11.15;;;4.22;;
68858;SDS011;55864;49.238;8.092;2022-10-29T13:46:40;14.50;;;4.05;;
68858;SDS011;55864;49.238;8.092;2022-10-29T13:48:45;13.93;;;3.78;;
68858;SDS011;55864;49.238;8.092;2022-10-29T13:50:47;11.30;;;3.90;;
68858;SDS011;55864;49.238;8.092;2022-10-29T13:52:52;17.10;;;3.92;;
68858;SDS011;55864;49.238;8.092;2022-10-29T13:54:55;13.82;;;3.97;;
68858;SDS011;55864;49.238;8.092;2022-10-29T13:56:59;15.27;;;4.20;;
68858;SDS011;55864;49.238;8.092;2022-10-29T13:59:07;12.60;;;3.80;;
68858;SDS011;55864;49.238;8.092;2022-10-29T14:01:16;9.93;;;3.67;;
68858;SDS011;55864;49.238;8.092;2022-10-29T14:03:21;14.55;;;3.65;;
68858;SDS011;55864;49.238;8.092;2022-10-29T14:05:29;12.77;;;4.05;;
68858;SDS011;55864;49.238;8.092;2022-10-29T14:07:36;12.15;;;3.90;;
68858;SDS011;55864;49.238;8.092;2022-10-29T14:09:44;16.52;;;4.20;;
68858;SDS011;55864;49.238;8.092;2022-10-29T14:11:50;10.38;;;3.63;;
68858;SDS011;55864;49.238;8.092;2022-10-29T14:13:57;12.55;;;3.80;;
68858;SDS011;55864;49.238;8.092;2022-10-29T14:16:00;11.43;;;3.88;;
68858;SDS011;55864;49.238;8.092;2022-10-29T14:18:15;11.35;;;3.60;;
68858;SDS011;55864;49.238;8.092;2022-10-29T14:20:20;10.73;;;3.55;;
68858;SDS011;55864;49.238;8.092;2022-10-29T14:22:36;11.98;;;3.95;;
68858;SDS011;55864;49.238;8.092;2022-10-29T14:24:37;11.68;;;3.85;;
68858;SDS011;55864;49.238;8.092;2022-10-29T14:26:40;12.82;;;3.90;;
68858;SDS011;55864;49.238;8.092;2022-10-29T14:28:42;16.45;;;4.30;;
68858;SDS011;55864;49.238;8.092;2022-10-29T14:30:43;17.10;;;3.92;;
68858;SDS011;55864;49.238;8.092;2022-10-29T14:32:44;10.43;;;4.20;;
68858;SDS011;55864;49.238;8.092;2022-10-29T14:34:46;15.85;;;3.90;;
68858;SDS011;55864;49.238;8.092;2022-10-29T14:38:49;10.15;;;4.05;;
68858;SDS011;55864;49.238;8.092;2022-10-29T14:40:53;17.52;;;3.83;;
68858;SDS011;55864;49.238;8.092;2022-10-29T14:42:55;14.95;;;3.78;;
68858;SDS011;55864;49.238;8.092;2022-10-29T14:44:57;13.65;;;3.70;;
68858;SDS011;55864;49.238;8.092;2022-10-29T14:47:02;13.27;;;3.83;;
68858;SDS011;55864;49.238;8.092;2022-10-29T14:49:10;11.52;;;3.70;;
68858;SDS011;55864;49.238;8.092;2022-10-29T14:51:17;11.63;;;3.65;;
68858;SDS011;55864;49.238;8.092;2022-10-29T14:53:26;11.30;;;4.10;;
68858;SDS011;55864;49.238;8.092;2022-10-29T14:55:29;15.48;;;4.60;;
68858;SDS011;55864;49.238;8.092;2022-10-29T14:57:33;13.82;;;4.00;;
68858;SDS011;55864;49.238;8.092;2022-10-29T14:59:42;18.08;;;4.50;;
68858;SDS011;55864;49.238;8.092;2022-10-29T15:01:49;12.88;;;4.45;;
68858;SDS011;55864;49.238;8.092;2022-10-29T15:03:55;15.93;;;4.90;;
68858;SDS011;55864;49.238;8.092;2022-10-29T15:06:13;12.20;;;4.07;;
68858;SDS011;55864;49.238;8.092;2022-10-29T15:08:16;16.10;;;4.40;;
68858;SDS011;55864;49.238;8.092;2022-10-29T15:10:23;16.88;;;4.32;;
68858;SDS011;55864;49.238;8.092;2022-10-29T15:12:24;11.73;;;4.50;;
68858;SDS011;55864;49.238;8.092;2022-10-29T15:14:35;11.70;;;3.85;;
68858;SDS011;55864;49.238;8.092;2022-10-29T15:16:48;14.27;;;4.55;;
68858;SDS011;55864;49.238;8.092;2022-10-29T15:18:49;13.73;;;4.10;;
68858;SDS011;55864;49.238;8.092;2022-10-29T15:20:52;13.77;;;4.47;;
68858;SDS011;55864;49.238;8.092;2022-10-29T15:22:57;13.10;;;4.13;;
68858;SDS011;55864;49.238;8.092;2022-10-29T15:24:58;14.88;;;4.28;;
68858;SDS011;55864;49.238;8.092;2022-10-29T15:27:02;12.35;;;4.10;;
68858;SDS011;55864;49.238;8.092;2022-10-29T15:29:05;12.98;;;4.20;;
68858;SDS011;55864;49.238;8.092;2022-10-29T15:31:11;15.60;;;4.65;;
68858;SDS011;55864;49.238;8.092;2022-10-29T15:33:23;13.02;;;4.35;;
68858;SDS011;55864;49.238;8.092;2022-10-29T15:35:26;12.48;;;4.43;;
68858;SDS011;55864;49.238;8.092;2022-10-29T15:37:38;12.40;;;3.60;;
68858;SDS011;55864;49.238;8.092;2022-10-29T15:41:58;11.25;;;3.90;;
68858;SDS011;55864;49.238;8.092;2022-10-29T15:43:59;11.15;;;4.03;;
68858;SDS011;55864;49.238;8.092;2022-10-29T15:46:00;12.52;;;4.13;;
68858;SDS011;55864;49.238;8.092;2022-10-29T15:50:36;12.00;;;3.80;;
68858;SDS011;55864;49.238;8.092;2022-10-29T15:52:39;10.50;;;3.75;;
68858;SDS011;55864;49.238;8.092;2022-10-29T15:54:42;12.20;;;4.13;;
68858;SDS011;55864;49.238;8.092;2022-10-29T15:56:42;14.05;;;4.57;;
68858;SDS011;55864;49.238;8.092;2022-10-29T15:58:43;11.60;;;4.03;;
68858;SDS011;55864;49.238;8.092;2022-10-29T16:00:44;13.65;;;4.28;;
68858;SDS011;55864;49.238;8.092;2022-10-29T16:02:44;11.93;;;4.40;;
68858;SDS011;55864;49.238;8.092;2022-10-29T16:04:50;13.07;;;4.75;;
68858;SDS011;55864;49.238;8.092;2022-10-29T16:06:50;11.80;;;4.55;;
68858;SDS011;55864;49.238;8.092;2022-10-29T16:08:51;16.08;;;4.15;;
68858;SDS011;55864;49.238;8.092;2022-10-29T16:10:53;13.75;;;4.50;;
68858;SDS011;55864;49.238;8.092;2022-10-29T16:12:55;15.47;;;4.90;;
68858;SDS011;55864;49.238;8.092;2022-10-29T16:14:56;14.65;;;4.25;;
68858;SDS011;55864;49.238;8.092;2022-10-29T16:16:57;14.95;;;4.40;;
68858;SDS011;55864;49.238;8.092;2022-10-29T16:18:58;13.18;;;4.00;;
68858;SDS011;55864;49.238;8.092;2022-10-29T16:21:00;19.08;;;4.80;;
68858;SDS011;55864;49.238;8.092;2022-10-29T16:23:04;18.17;;;5.03;;
68858;SDS011;55864;49.238;8.092;2022-10-29T16:25:05;15.23;;;5.07;;
68858;SDS011;55864;49.238;8.092;2022-10-29T16:27:09;13.23;;;4.75;;
68858;SDS011;55864;49.238;8.092;2022-10-29T16:29:12;21.20;;;10.75;;
68858;SDS011;55864;49.238;8.092;2022-10-29T16:31:26;27.00;;;13.25;;
68858;SDS011;55864;49.238;8.092;2022-10-29T16:33:39;18.45;;;9.52;;
68858;SDS011;55864;49.238;8.092;2022-10-29T16:35:39;26.77;;;11.98;;
68858;SDS011;55864;49.238;8.092;2022-10-29T16:37:41;26.05;;;10.95;;
68858;SDS011;55864;49.238;8.092;2022-10-29T16:39:42;20.45;;;10.50;;
68858;SDS011;55864;49.238;8.092;2022-10-29T16:41:43;18.40;;;8.57;;
68858;SDS011;55864;49.238;8.092;2022-10-29T16:43:43;17.25;;;7.65;;
68858;SDS011;55864;49.238;8.092;2022-10-29T16:45:44;16.65;;;6.85;;
68858;SDS011;55864;49.238;8.092;2022-10-29T16:47:45;18.20;;;6.78;;
68858;SDS011;55864;49.238;8.092;2022-10-29T16:49:45;13.18;;;4.97;;
68858;SDS011;55864;49.238;8.092;2022-10-29T16:51:46;16.48;;;5.95;;
68858;SDS011;55864;49.238;8.092;2022-10-29T16:53:48;12.68;;;5.10;;
68858;SDS011;55864;49.238;8.092;2022-10-29T16:55:49;12.57;;;4.95;;
68858;SDS011;55864;49.238;8.092;2022-10-29T16:57:49;13.43;;;5.57;;
68858;SDS011;55864;49.238;8.092;2022-10-29T16:59:50;13.38;;;4.32;;
68858;SDS011;55864;49.238;8.092;2022-10-29T17:01:50;13.82;;;4.70;;
68858;SDS011;55864;49.238;8.092;2022-10-29T17:03:51;17.33;;;5.28;;
68858;SDS011;55864;49.238;8.092;2022-10-29T17:05:52;14.18;;;4.80;;
68858;SDS011;55864;49.238;8.092;2022-10-29T17:07:52;15.02;;;5.10;;
68858;SDS011;55864;49.238;8.092;2022-10-29T17:09:54;16.98;;;5.03;;
68858;SDS011;55864;49.238;8.092;2022-10-29T17:11:55;11.20;;;4.63;;
68858;SDS011;55864;49.238;8.092;2022-10-29T17:13:55;13.15;;;4.70;;
68858;SDS011;55864;49.238;8.092;2022-10-29T17:15:56;11.18;;;5.07;;
68858;SDS011;55864;49.238;8.092;2022-10-29T17:17:57;11.43;;;4.38;;
68858;SDS011;55864;49.238;8.092;2022-10-29T17:19:58;12.57;;;5.38;;
68858;SDS011;55864;49.238;8.092;2022-10-29T17:21:58;18.85;;;6.60;;
68858;SDS011;55864;49.238;8.092;2022-10-29T17:23:59;21.65;;;7.65;;
68858;SDS011;55864;49.238;8.092;2022-10-29T17:26:01;16.08;;;6.43;;
68858;SDS011;55864;49.238;8.092;2022-10-29T17:28:01;16.60;;;6.80;;
68858;SDS011;55864;49.238;8.092;2022-10-29T17:30:02;18.13;;;6.93;;
68858;SDS011;55864;49.238;8.092;2022-10-29T17:32:04;19.83;;;7.13;;
68858;SDS011;55864;49.238;8.092;2022-10-29T17:34:05;17.48;;;6.22;;
68858;SDS011;55864;49.238;8.092;2022-10-29T17:36:07;17.15;;;6.68;;
68858;SDS011;55864;49.238;8.092;2022-10-29T17:38:10;14.15;;;5.28;;
68858;SDS011;55864;49.238;8.092;2022-10-29T17:40:11;16.23;;;5.65;;
68858;SDS011;55864;49.238;8.092;2022-10-29T17:42:13;16.70;;;5.57;;
68858;SDS011;55864;49.238;8.092;2022-10-29T17:44:13;14.95;;;5.43;;
68858;SDS011;55864;49.238;8.092;2022-10-29T17:46:14;13.63;;;5.32;;
68858;SDS011;55864;49.238;8.092;2022-10-29T17:48:15;15.32;;;5.15;;
68858;SDS011;55864;49.238;8.092;2022-10-29T17:50:16;15.90;;;4.50;;
68858;SDS011;55864;49.238;8.092;2022-10-29T17:52:21;12.00;;;4.32;;
68858;SDS011;55864;49.238;8.092;2022-10-29T17:54:33;12.98;;;4.85;;
68858;SDS011;55864;49.238;8.092;2022-10-29T17:56:33;15.77;;;5.25;;
68858;SDS011;55864;49.238;8.092;2022-10-29T17:58:36;12.70;;;4.88;;
68858;SDS011;55864;49.238;8.092;2022-10-29T18:00:37;15.00;;;5.22;;
68858;SDS011;55864;49.238;8.092;2022-10-29T18:02:37;16.13;;;5.20;;
68858;SDS011;55864;49.238;8.092;2022-10-29T18:04:38;18.67;;;5.07;;
68858;SDS011;55864;49.238;8.092;2022-10-29T18:06:38;18.60;;;4.57;;
68858;SDS011;55864;49.238;8.092;2022-10-29T18:08:39;17.27;;;5.38;;
68858;SDS011;55864;49.238;8.092;2022-10-29T18:10:41;17.03;;;5.47;;
68858;SDS011;55864;49.238;8.092;2022-10-29T18:12:42;14.82;;;5.05;;
68858;SDS011;55864;49.238;8.092;2022-10-29T18:14:43;21.30;;;6.15;;
68858;SDS011;55864;49.238;8.092;2022-10-29T18:16:44;15.23;;;6.13;;
68858;SDS011;55864;49.238;8.092;2022-10-29T18:18:48;15.70;;;6.30;;
68858;SDS011;55864;49.238;8.092;2022-10-29T18:20:50;15.50;;;6.10;;
68858;SDS011;55864;49.238;8.092;2022-10-29T18:22:50;19.23;;;5.93;;
68858;SDS011;55864;49.238;8.092;2022-10-29T18:24:51;16.63;;;5.15;;
68858;SDS011;55864;49.238;8.092;2022-10-29T18:26:51;11.77;;;4.35;;
68858;SDS011;55864;49.238;8.092;2022-10-29T18:28:52;14.57;;;4.80;;
68858;SDS011;55864;49.238;8.092;2022-10-29T18:30:55;13.90;;;3.97;;
68858;SDS011;55864;49.238;8.092;2022-10-29T18:32:56;12.65;;;3.78;;
68858;SDS011;55864;49.238;8.092;2022-10-29T18:34:56;11.32;;;3.67;;
68858;SDS011;55864;49.238;8.092;2022-10-29T18:36:57;14.30;;;3.80;;
68858;SDS011;55864;49.238;8.092;2022-10-29T18:38:57;13.50;;;3.72;;
68858;SDS011;55864;49.238;8.092;2022-10-29T18:40:58;15.50;;;3.45;;
68858;SDS011;55864;49.238;8.092;2022-10-29T18:42:58;13.38;;;3.58;;
68858;SDS011;55864;49.238;8.092;2022-10-29T18:44:59;15.30;;;5.13;;
68858;SDS011;55864;49.238;8.092;2022-10-29T18:47:01;15.85;;;5.78;;
68858;SDS011;55864;49.238;8.092;2022-10-29T18:49:01;14.93;;;4.20;;
68858;SDS011;55864;49.238;8.092;2022-10-29T18:51:03;12.77;;;4.75;;
68858;SDS011;55864;49.238;8.092;2022-10-29T18:55:06;14.85;;;3.75;;
68858;SDS011;55864;49.238;8.092;2022-10-29T18:57:07;12.85;;;3.85;;
68858;SDS011;55864;49.238;8.092;2022-10-29T18:59:08;10.25;;;3.58;;
68858;SDS011;55864;49.238;8.092;2022-10-29T19:01:10;11.43;;;3.22;;
68858;SDS011;55864;49.238;8.092;2022-10-29T19:05:14;10.30;;;3.30;;
68858;SDS011;55864;49.238;8.092;2022-10-29T19:07:15;13.35;;;4.00;;
68858;SDS011;55864;49.238;8.092;2022-10-29T19:09:16;14.07;;;3.72;;
68858;SDS011;55864;49.238;8.092;2022-10-29T19:11:17;14.40;;;3.47;;
68858;SDS011;55864;49.238;8.092;2022-10-29T19:13:19;11.93;;;4.20;;
68858;SDS011;55864;49.238;8.092;2022-10-29T19:15:20;14.15;;;3.40;;
68858;SDS011;55864;49.238;8.092;2022-10-29T19:17:20;12.48;;;3.65;;
68858;SDS011;55864;49.238;8.092;2022-10-29T19:19:22;12.48;;;3.72;;
68858;SDS011;55864;49.238;8.092;2022-10-29T19:21:23;15.98;;;4.30;;
68858;SDS011;55864;49.238;8.092;2022-10-29T19:23:24;12.63;;;4.22;;
68858;SDS011;55864;49.238;8.092;2022-10-29T19:25:25;15.25;;;3.92;;
68858;SDS011;55864;49.238;8.092;2022-10-29T19:27:25;19.63;;;4.43;;
68858;SDS011;55864;49.238;8.092;2022-10-29T19:29:26;13.45;;;3.85;;
68858;SDS011;55864;49.238;8.092;2022-10-29T19:31:28;13.45;;;3.83;;
68858;SDS011;55864;49.238;8.092;2022-10-29T19:33:30;12.52;;;3.60;;
68858;SDS011;55864;49.238;8.092;2022-10-29T19:35:32;11.57;;;4.18;;
68858;SDS011;55864;49.238;8.092;2022-10-29T19:37:33;15.38;;;4.90;;
68858;SDS011;55864;49.238;8.092;2022-10-29T19:39:33;13.05;;;4.40;;
68858;SDS011;55864;49.238;8.092;2022-10-29T19:41:34;16.25;;;3.88;;
68858;SDS011;55864;49.238;8.092;2022-10-29T19:43:34;13.15;;;4.28;;
68858;SDS011;55864;49.238;8.092;2022-10-29T19:45:36;16.15;;;5.05;;
68858;SDS011;55864;49.238;8.092;2022-10-29T19:47:37;12.35;;;4.18;;
68858;SDS011;55864;49.238;8.092;2022-10-29T19:49:37;20.40;;;4.15;;
68858;SDS011;55864;49.238;8.092;2022-10-29T19:51:39;13.35;;;4.07;;
68858;SDS011;55864;49.238;8.092;2022-10-29T19:53:40;11.80;;;3.83;;
68858;SDS011;55864;49.238;8.092;2022-10-29T19:55:40;10.30;;;3.55;;
68858;SDS011;55864;49.238;8.092;2022-10-29T19:57:41;15.00;;;3.92;;
68858;SDS011;55864;49.238;8.092;2022-10-29T19:59:41;13.43;;;3.72;;
68858;SDS011;55864;49.238;8.092;2022-10-29T20:01:42;13.75;;;3.58;;
68858;SDS011;55864;49.238;8.092;2022-10-29T20:03:42;11.73;;;3.63;;
68858;SDS011;55864;49.238;8.092;2022-10-29T20:05:44;12.75;;;3.67;;